LGZA/ZTH METAR and TAF weather

Enter ICAO airport designator
Station Type Date Time Source
LGZA METAR 2019/04/20 17:50 UTC NOAA

LGZA 201750Z 01004KT 9999 FEW020 17/14 Q1022


Station Type Date Time Source
LGZA Decoded METAR 2019/04/20 17:50 UTC NOAA

Zakinthos Airport , Greece (LGZA) 37-45N 020-53E
Apr 20, 2019 - 01:50 PM EDT / 2019.04.20 1750 UTC
Wind: from the N (010 degrees) at 5 MPH (4 KT):0
Visibility: greater than 7 mile(s):0
Sky conditions: mostly clear
Temperature: 62 F (17 C)
Dew Point: 57 F (14 C)
Relative Humidity: 82%
Pressure (altimeter): 30.18 in. Hg (1022 hPa)
ob: LGZA 201750Z 01004KT 9999 FEW020 17/14 Q1022
cycle: 18

Station Type Date Time Source
LGZA TAF 2011/11/25 15:06 UTC NOAA

TAF TAF LGZA 251400Z 2515/2603 02012KT 9999 FEW025 SCT035 BKN080 PROB30
TEMPO 2518/2603 8000 RA PROB30 2522/2603 5000 BR SCT010

Example: see airport list